sensor_id;sensor_type;location;lat;lon;timestamp;temperature;humidity
23497;DHT22;11925;48.122;11.560;2023-12-20T00:00:14;10.40;77.90
23497;DHT22;11925;48.122;11.560;2023-12-20T00:02:43;10.40;77.70
23497;DHT22;11925;48.122;11.560;2023-12-20T00:05:14;10.40;78.10
23497;DHT22;11925;48.122;11.560;2023-12-20T00:07:42;10.40;78.00
23497;DHT22;11925;48.122;11.560;2023-12-20T00:10:11;10.50;78.40
23497;DHT22;11925;48.122;11.560;2023-12-20T00:12:41;10.40;78.80
23497;DHT22;11925;48.122;11.560;2023-12-20T00:15:10;10.40;78.80
23497;DHT22;11925;48.122;11.560;2023-12-20T00:17:38;10.40;78.60
23497;DHT22;11925;48.122;11.560;2023-12-20T00:20:08;10.40;78.90
23497;DHT22;11925;48.122;11.560;2023-12-20T00:22:37;10.40;79.20
23497;DHT22;11925;48.122;11.560;2023-12-20T00:25:06;10.40;79.30
23497;DHT22;11925;48.122;11.560;2023-12-20T00:27:34;10.40;79.10
23497;DHT22;11925;48.122;11.560;2023-12-20T00:30:05;10.40;79.40
23497;DHT22;11925;48.122;11.560;2023-12-20T00:32:35;10.40;79.70
23497;DHT22;11925;48.122;11.560;2023-12-20T00:35:04;10.40;80.60
23497;DHT22;11925;48.122;11.560;2023-12-20T00:37:32;10.40;80.60
23497;DHT22;11925;48.122;11.560;2023-12-20T00:40:01;10.40;80.40
23497;DHT22;11925;48.122;11.560;2023-12-20T00:42:29;10.40;80.30
23497;DHT22;11925;48.122;11.560;2023-12-20T00:44:58;10.40;80.40
23497;DHT22;11925;48.122;11.560;2023-12-20T00:47:28;10.40;80.20
23497;DHT22;11925;48.122;11.560;2023-12-20T00:49:57;10.40;79.50
23497;DHT22;11925;48.122;11.560;2023-12-20T00:52:26;10.40;79.40
23497;DHT22;11925;48.122;11.560;2023-12-20T00:54:54;10.40;79.00
23497;DHT22;11925;48.122;11.560;2023-12-20T00:57:22;10.30;78.80
23497;DHT22;11925;48.122;11.560;2023-12-20T00:59:52;10.30;78.50
23497;DHT22;11925;48.122;11.560;2023-12-20T01:02:21;10.30;78.10
23497;DHT22;11925;48.122;11.560;2023-12-20T01:04:50;10.30;78.50
23497;DHT22;11925;48.122;11.560;2023-12-20T01:07:19;10.30;78.20
23497;DHT22;11925;48.122;11.560;2023-12-20T01:09:48;10.30;78.10
23497;DHT22;11925;48.122;11.560;2023-12-20T01:12:17;10.20;78.00
23497;DHT22;11925;48.122;11.560;2023-12-20T01:14:47;10.20;77.40
23497;DHT22;11925;48.122;11.560;2023-12-20T01:17:15;10.20;77.50
23497;DHT22;11925;48.122;11.560;2023-12-20T01:19:44;10.30;77.30
23497;DHT22;11925;48.122;11.560;2023-12-20T01:22:14;10.30;77.80
23497;DHT22;11925;48.122;11.560;2023-12-20T01:24:42;10.30;77.80
23497;DHT22;11925;48.122;11.560;2023-12-20T01:27:11;10.30;78.40
23497;DHT22;11925;48.122;11.560;2023-12-20T01:29:39;10.30;78.30
23497;DHT22;11925;48.122;11.560;2023-12-20T01:32:08;10.30;78.20
23497;DHT22;11925;48.122;11.560;2023-12-20T01:34:36;10.30;78.50
23497;DHT22;11925;48.122;11.560;2023-12-20T01:37:05;10.20;78.20
23497;DHT22;11925;48.122;11.560;2023-12-20T01:39:35;10.20;78.10
23497;DHT22;11925;48.122;11.560;2023-12-20T01:42:03;10.20;78.50
23497;DHT22;11925;48.122;11.560;2023-12-20T01:44:32;10.20;78.40
23497;DHT22;11925;48.122;11.560;2023-12-20T01:47:01;10.20;78.60
23497;DHT22;11925;48.122;11.560;2023-12-20T01:49:29;10.20;78.80
23497;DHT22;11925;48.122;11.560;2023-12-20T01:51:58;10.20;78.90
23497;DHT22;11925;48.122;11.560;2023-12-20T01:54:27;10.20;78.80
23497;DHT22;11925;48.122;11.560;2023-12-20T01:56:56;10.20;79.00
23497;DHT22;11925;48.122;11.560;2023-12-20T01:59:25;10.20;78.90
23497;DHT22;11925;48.122;11.560;2023-12-20T02:01:54;10.20;79.00
23497;DHT22;11925;48.122;11.560;2023-12-20T02:04:23;10.20;79.20
23497;DHT22;11925;48.122;11.560;2023-12-20T02:06:53;10.20;79.30
23497;DHT22;11925;48.122;11.560;2023-12-20T02:09:22;10.20;79.00
23497;DHT22;11925;48.122;11.560;2023-12-20T02:11:51;10.20;79.30
23497;DHT22;11925;48.122;11.560;2023-12-20T02:14:20;10.20;79.10
23497;DHT22;11925;48.122;11.560;2023-12-20T02:16:49;10.20;79.90
23497;DHT22;11925;48.122;11.560;2023-12-20T02:19:18;10.20;78.90
23497;DHT22;11925;48.122;11.560;2023-12-20T02:21:49;10.20;79.20
23497;DHT22;11925;48.122;11.560;2023-12-20T02:24:18;10.30;79.20
23497;DHT22;11925;48.122;11.560;2023-12-20T02:26:46;10.20;79.20
23497;DHT22;11925;48.122;11.560;2023-12-20T02:29:15;10.20;79.20
23497;DHT22;11925;48.122;11.560;2023-12-20T02:31:43;10.30;79.40
23497;DHT22;11925;48.122;11.560;2023-12-20T02:34:11;10.20;79.10
23497;DHT22;11925;48.122;11.560;2023-12-20T02:36:40;10.20;79.50
23497;DHT22;11925;48.122;11.560;2023-12-20T02:39:10;10.20;79.70
23497;DHT22;11925;48.122;11.560;2023-12-20T02:41:38;10.30;80.30
23497;DHT22;11925;48.122;11.560;2023-12-20T02:44:06;10.30;80.60
23497;DHT22;11925;48.122;11.560;2023-12-20T02:46:35;10.30;80.50
23497;DHT22;11925;48.122;11.560;2023-12-20T02:49:03;10.20;80.60
23497;DHT22;11925;48.122;11.560;2023-12-20T02:51:32;10.20;80.60
23497;DHT22;11925;48.122;11.560;2023-12-20T02:54:00;10.30;81.10
23497;DHT22;11925;48.122;11.560;2023-12-20T02:56:30;10.30;81.00
23497;DHT22;11925;48.122;11.560;2023-12-20T02:58:59;10.20;81.20
23497;DHT22;11925;48.122;11.560;2023-12-20T03:01:27;10.20;81.20
23497;DHT22;11925;48.122;11.560;2023-12-20T03:03:56;10.20;81.10
23497;DHT22;11925;48.122;11.560;2023-12-20T03:06:25;10.20;81.30
23497;DHT22;11925;48.122;11.560;2023-12-20T03:08:53;10.30;81.40
23497;DHT22;11925;48.122;11.560;2023-12-20T03:11:22;10.30;81.50
23497;DHT22;11925;48.122;11.560;2023-12-20T03:13:56;10.30;81.70
23497;DHT22;11925;48.122;11.560;2023-12-20T03:16:24;10.20;82.00
23497;DHT22;11925;48.122;11.560;2023-12-20T03:18:53;10.20;82.00
23497;DHT22;11925;48.122;11.560;2023-12-20T03:21:21;10.30;82.50
23497;DHT22;11925;48.122;11.560;2023-12-20T03:23:49;10.20;82.70
23497;DHT22;11925;48.122;11.560;2023-12-20T03:26:18;10.30;82.90
23497;DHT22;11925;48.122;11.560;2023-12-20T03:28:46;10.20;83.10
23497;DHT22;11925;48.122;11.560;2023-12-20T03:31:16;10.20;83.40
23497;DHT22;11925;48.122;11.560;2023-12-20T03:33:45;10.20;83.70
23497;DHT22;11925;48.122;11.560;2023-12-20T03:36:14;10.20;83.90
23497;DHT22;11925;48.122;11.560;2023-12-20T03:38:42;10.20;84.20
23497;DHT22;11925;48.122;11.560;2023-12-20T03:41:11;10.20;84.30
23497;DHT22;11925;48.122;11.560;2023-12-20T03:43:39;10.20;85.60
23497;DHT22;11925;48.122;11.560;2023-12-20T03:46:08;10.20;85.00
23497;DHT22;11925;48.122;11.560;2023-12-20T03:48:38;10.20;85.40
23497;DHT22;11925;48.122;11.560;2023-12-20T03:51:07;10.30;86.00
23497;DHT22;11925;48.122;11.560;2023-12-20T03:53:35;10.20;86.30
23497;DHT22;11925;48.122;11.560;2023-12-20T03:56:04;10.20;86.70
23497;DHT22;11925;48.122;11.560;2023-12-20T03:58:32;10.20;87.10
23497;DHT22;11925;48.122;11.560;2023-12-20T04:01:01;10.20;87.50
23497;DHT22;11925;48.122;11.560;2023-12-20T04:03:29;10.20;88.40
23497;DHT22;11925;48.122;11.560;2023-12-20T04:05:59;10.20;88.60
23497;DHT22;11925;48.122;11.560;2023-12-20T04:08:28;10.20;89.10
23497;DHT22;11925;48.122;11.560;2023-12-20T04:10:57;10.20;89.70
23497;DHT22;11925;48.122;11.560;2023-12-20T04:13:25;10.20;90.10
23497;DHT22;11925;48.122;11.560;2023-12-20T04:15:54;10.20;90.40
23497;DHT22;11925;48.122;11.560;2023-12-20T04:18:22;10.20;90.50
23497;DHT22;11925;48.122;11.560;2023-12-20T04:20:51;10.20;90.70
23497;DHT22;11925;48.122;11.560;2023-12-20T04:23:21;10.20;90.70
23497;DHT22;11925;48.122;11.560;2023-12-20T04:25:49;10.20;91.00
23497;DHT22;11925;48.122;11.560;2023-12-20T04:28:17;10.20;91.20
23497;DHT22;11925;48.122;11.560;2023-12-20T04:30:46;10.20;91.50
23497;DHT22;11925;48.122;11.560;2023-12-20T04:33:14;10.20;91.70
23497;DHT22;11925;48.122;11.560;2023-12-20T04:35:43;10.20;91.80
23497;DHT22;11925;48.122;11.560;2023-12-20T04:38:13;10.20;91.90
23497;DHT22;11925;48.122;11.560;2023-12-20T04:40:43;10.20;92.00
23497;DHT22;11925;48.122;11.560;2023-12-20T04:43:11;10.20;92.10
23497;DHT22;11925;48.122;11.560;2023-12-20T04:45:40;10.20;92.40
23497;DHT22;11925;48.122;11.560;2023-12-20T04:48:08;10.20;92.00
23497;DHT22;11925;48.122;11.560;2023-12-20T04:50:37;10.20;92.50
23497;DHT22;11925;48.122;11.560;2023-12-20T04:53:05;10.20;92.60
23497;DHT22;11925;48.122;11.560;2023-12-20T04:55:33;10.20;92.70
23497;DHT22;11925;48.122;11.560;2023-12-20T04:58:04;10.10;92.70
23497;DHT22;11925;48.122;11.560;2023-12-20T05:00:32;10.10;93.10
23497;DHT22;11925;48.122;11.560;2023-12-20T05:03:01;10.10;93.30
23497;DHT22;11925;48.122;11.560;2023-12-20T05:05:29;10.10;93.50
23497;DHT22;11925;48.122;11.560;2023-12-20T05:07:58;10.10;93.70
23497;DHT22;11925;48.122;11.560;2023-12-20T05:10:26;10.20;94.00
23497;DHT22;11925;48.122;11.560;2023-12-20T05:12:55;10.10;94.30
23497;DHT22;11925;48.122;11.560;2023-12-20T05:15:25;10.10;94.50
23497;DHT22;11925;48.122;11.560;2023-12-20T05:17:53;10.10;94.70
23497;DHT22;11925;48.122;11.560;2023-12-20T05:20:21;10.10;94.90
23497;DHT22;11925;48.122;11.560;2023-12-20T05:22:50;10.10;95.10
23497;DHT22;11925;48.122;11.560;2023-12-20T05:25:19;10.10;95.00
23497;DHT22;11925;48.122;11.560;2023-12-20T05:27:47;10.10;95.30
23497;DHT22;11925;48.122;11.560;2023-12-20T05:30:16;10.10;95.40
23497;DHT22;11925;48.122;11.560;2023-12-20T05:32:46;10.10;95.40
23497;DHT22;11925;48.122;11.560;2023-12-20T05:35:15;10.10;95.60
23497;DHT22;11925;48.122;11.560;2023-12-20T05:37:44;10.10;96.00
23497;DHT22;11925;48.122;11.560;2023-12-20T05:40:13;10.10;95.90
23497;DHT22;11925;48.122;11.560;2023-12-20T05:42:41;10.10;96.20
23497;DHT22;11925;48.122;11.560;2023-12-20T05:45:10;10.10;96.30
23497;DHT22;11925;48.122;11.560;2023-12-20T05:47:39;10.10;96.40
23497;DHT22;11925;48.122;11.560;2023-12-20T05:50:09;10.10;96.40
23497;DHT22;11925;48.122;11.560;2023-12-20T05:52:37;10.10;96.40
23497;DHT22;11925;48.122;11.560;2023-12-20T05:55:06;10.10;96.50
23497;DHT22;11925;48.122;11.560;2023-12-20T05:57:35;10.00;96.60
23497;DHT22;11925;48.122;11.560;2023-12-20T06:00:04;10.00;96.70
23497;DHT22;11925;48.122;11.560;2023-12-20T06:02:38;10.00;96.60
23497;DHT22;11925;48.122;11.560;2023-12-20T06:05:08;10.00;96.60
23497;DHT22;11925;48.122;11.560;2023-12-20T06:07:37;10.00;96.60
23497;DHT22;11925;48.122;11.560;2023-12-20T06:10:06;10.00;96.60
23497;DHT22;11925;48.122;11.560;2023-12-20T06:12:34;10.00;96.60
23497;DHT22;11925;48.122;11.560;2023-12-20T06:15:04;9.90;96.70
23497;DHT22;11925;48.122;11.560;2023-12-20T06:17:32;9.90;96.70
23497;DHT22;11925;48.122;11.560;2023-12-20T06:20:02;10.00;96.80
23497;DHT22;11925;48.122;11.560;2023-12-20T06:22:36;9.90;96.80
23497;DHT22;11925;48.122;11.560;2023-12-20T06:25:05;9.90;96.90
23497;DHT22;11925;48.122;11.560;2023-12-20T06:27:34;9.90;96.90
23497;DHT22;11925;48.122;11.560;2023-12-20T06:30:03;9.90;96.90
23497;DHT22;11925;48.122;11.560;2023-12-20T06:32:31;10.00;96.90
23497;DHT22;11925;48.122;11.560;2023-12-20T06:35:01;9.90;96.70
23497;DHT22;11925;48.122;11.560;2023-12-20T06:37:31;9.90;96.90
23497;DHT22;11925;48.122;11.560;2023-12-20T06:40:01;9.90;97.00
23497;DHT22;11925;48.122;11.560;2023-12-20T06:42:30;9.90;97.00
23497;DHT22;11925;48.122;11.560;2023-12-20T06:45:06;9.90;97.10
23497;DHT22;11925;48.122;11.560;2023-12-20T06:47:35;9.90;97.10
23497;DHT22;11925;48.122;11.560;2023-12-20T06:50:04;9.90;97.10
23497;DHT22;11925;48.122;11.560;2023-12-20T06:52:33;9.90;97.10
23497;DHT22;11925;48.122;11.560;2023-12-20T06:55:03;9.90;97.20
23497;DHT22;11925;48.122;11.560;2023-12-20T06:57:31;9.90;97.20
23497;DHT22;11925;48.122;11.560;2023-12-20T07:00:00;9.90;97.20
23497;DHT22;11925;48.122;11.560;2023-12-20T07:02:28;9.80;97.20
23497;DHT22;11925;48.122;11.560;2023-12-20T07:04:57;9.80;97.20
23497;DHT22;11925;48.122;11.560;2023-12-20T07:07:26;9.80;97.30
23497;DHT22;11925;48.122;11.560;2023-12-20T07:09:54;9.80;97.40
23497;DHT22;11925;48.122;11.560;2023-12-20T07:12:24;9.80;98.30
23497;DHT22;11925;48.122;11.560;2023-12-20T07:14:53;9.80;97.90
23497;DHT22;11925;48.122;11.560;2023-12-20T07:17:21;9.80;97.00
23497;DHT22;11925;48.122;11.560;2023-12-20T07:19:50;9.80;97.40
23497;DHT22;11925;48.122;11.560;2023-12-20T07:22:18;9.80;97.30
23497;DHT22;11925;48.122;11.560;2023-12-20T07:24:47;9.90;97.60
23497;DHT22;11925;48.122;11.560;2023-12-20T07:27:16;9.80;97.30
23497;DHT22;11925;48.122;11.560;2023-12-20T07:29:46;9.90;97.30
23497;DHT22;11925;48.122;11.560;2023-12-20T07:32:15;9.90;97.20
23497;DHT22;11925;48.122;11.560;2023-12-20T07:34:43;9.90;97.30
23497;DHT22;11925;48.122;11.560;2023-12-20T07:37:12;9.90;97.30
23497;DHT22;11925;48.122;11.560;2023-12-20T07:39:41;9.90;97.30
23497;DHT22;11925;48.122;11.560;2023-12-20T07:42:10;9.80;97.30
23497;DHT22;11925;48.122;11.560;2023-12-20T07:44:38;9.80;97.30
23497;DHT22;11925;48.122;11.560;2023-12-20T07:47:08;9.80;97.30
23497;DHT22;11925;48.122;11.560;2023-12-20T07:49:36;9.80;97.30
23497;DHT22;11925;48.122;11.560;2023-12-20T07:52:05;9.80;97.20
23497;DHT22;11925;48.122;11.560;2023-12-20T07:54:35;9.80;97.30
23497;DHT22;11925;48.122;11.560;2023-12-20T07:57:04;9.80;97.30
23497;DHT22;11925;48.122;11.560;2023-12-20T07:59:32;9.80;97.20
23497;DHT22;11925;48.122;11.560;2023-12-20T08:02:01;9.80;97.20
23497;DHT22;11925;48.122;11.560;2023-12-20T08:04:31;9.80;97.20
23497;DHT22;11925;48.122;11.560;2023-12-20T08:07:00;9.80;97.20
23497;DHT22;11925;48.122;11.560;2023-12-20T08:09:28;9.90;97.20
23497;DHT22;11925;48.122;11.560;2023-12-20T08:11:57;9.90;97.10
23497;DHT22;11925;48.122;11.560;2023-12-20T08:14:26;9.80;97.20
23497;DHT22;11925;48.122;11.560;2023-12-20T08:16:55;9.90;97.20
23497;DHT22;11925;48.122;11.560;2023-12-20T08:19:23;9.90;97.20
23497;DHT22;11925;48.122;11.560;2023-12-20T08:21:53;9.80;97.30
23497;DHT22;11925;48.122;11.560;2023-12-20T08:24:22;9.80;97.30
23497;DHT22;11925;48.122;11.560;2023-12-20T08:26:50;9.70;97.40
23497;DHT22;11925;48.122;11.560;2023-12-20T08:29:19;9.80;97.40
23497;DHT22;11925;48.122;11.560;2023-12-20T08:31:52;9.80;97.50
23497;DHT22;11925;48.122;11.560;2023-12-20T08:34:21;9.70;97.60
23497;DHT22;11925;48.122;11.560;2023-12-20T08:36:52;9.80;97.60
23497;DHT22;11925;48.122;11.560;2023-12-20T08:39:21;9.80;97.60
23497;DHT22;11925;48.122;11.560;2023-12-20T08:41:49;9.80;97.60
23497;DHT22;11925;48.122;11.560;2023-12-20T08:44:18;9.80;97.60
23497;DHT22;11925;48.122;11.560;2023-12-20T08:46:46;9.70;97.60
23497;DHT22;11925;48.122;11.560;2023-12-20T08:49:15;9.80;97.60
23497;DHT22;11925;48.122;11.560;2023-12-20T08:51:44;9.80;97.60
23497;DHT22;11925;48.122;11.560;2023-12-20T08:54:14;9.70;97.60
23497;DHT22;11925;48.122;11.560;2023-12-20T08:56:43;9.70;97.70
23497;DHT22;11925;48.122;11.560;2023-12-20T08:59:12;9.80;97.70
23497;DHT22;11925;48.122;11.560;2023-12-20T09:01:41;9.70;97.70
23497;DHT22;11925;48.122;11.560;2023-12-20T09:04:09;9.80;97.60
23497;DHT22;11925;48.122;11.560;2023-12-20T09:06:38;9.80;97.70
23497;DHT22;11925;48.122;11.560;2023-12-20T09:09:06;9.70;97.80
23497;DHT22;11925;48.122;11.560;2023-12-20T09:11:38;9.80;97.80
23497;DHT22;11925;48.122;11.560;2023-12-20T09:14:07;9.70;97.80
23497;DHT22;11925;48.122;11.560;2023-12-20T09:16:36;9.70;97.90
23497;DHT22;11925;48.122;11.560;2023-12-20T09:19:04;9.70;97.80
23497;DHT22;11925;48.122;11.560;2023-12-20T09:21:33;9.80;97.90
23497;DHT22;11925;48.122;11.560;2023-12-20T09:24:01;9.80;97.90
23497;DHT22;11925;48.122;11.560;2023-12-20T09:26:30;9.80;97.90
23497;DHT22;11925;48.122;11.560;2023-12-20T09:28:59;9.70;98.00
23497;DHT22;11925;48.122;11.560;2023-12-20T09:31:28;9.60;98.00
23497;DHT22;11925;48.122;11.560;2023-12-20T09:33:57;9.80;98.10
23497;DHT22;11925;48.122;11.560;2023-12-20T09:36:25;9.70;98.10
23497;DHT22;11925;48.122;11.560;2023-12-20T09:38:54;9.70;98.10
23497;DHT22;11925;48.122;11.560;2023-12-20T17:34:05;9.20;92.30
23497;DHT22;11925;48.122;11.560;2023-12-20T17:36:36;9.20;92.60
23497;DHT22;11925;48.122;11.560;2023-12-20T17:39:05;9.20;92.60
23497;DHT22;11925;48.122;11.560;2023-12-20T17:41:33;9.10;92.50
23497;DHT22;11925;48.122;11.560;2023-12-20T17:44:02;9.20;92.60
23497;DHT22;11925;48.122;11.560;2023-12-20T17:46:31;9.10;92.50
23497;DHT22;11925;48.122;11.560;2023-12-20T17:49:01;9.10;92.50
23497;DHT22;11925;48.122;11.560;2023-12-20T17:51:30;9.20;92.40
23497;DHT22;11925;48.122;11.560;2023-12-20T17:53:59;9.20;92.30
23497;DHT22;11925;48.122;11.560;2023-12-20T17:56:29;9.20;92.40
23497;DHT22;11925;48.122;11.560;2023-12-20T17:58:57;9.10;92.30
23497;DHT22;11925;48.122;11.560;2023-12-20T18:01:26;9.10;92.40
23497;DHT22;11925;48.122;11.560;2023-12-20T18:03:55;9.20;92.50
23497;DHT22;11925;48.122;11.560;2023-12-20T18:06:25;9.10;92.40
23497;DHT22;11925;48.122;11.560;2023-12-20T18:08:53;9.20;92.50
23497;DHT22;11925;48.122;11.560;2023-12-20T18:11:22;9.10;92.30
23497;DHT22;11925;48.122;11.560;2023-12-20T18:13:51;9.20;92.30
23497;DHT22;11925;48.122;11.560;2023-12-20T18:16:19;9.20;92.10
23497;DHT22;11925;48.122;11.560;2023-12-20T18:18:47;9.10;91.90
23497;DHT22;11925;48.122;11.560;2023-12-20T18:21:16;9.00;91.70
23497;DHT22;11925;48.122;11.560;2023-12-20T18:23:46;9.10;91.70
23497;DHT22;11925;48.122;11.560;2023-12-20T18:26:18;9.10;91.50
23497;DHT22;11925;48.122;11.560;2023-12-20T18:28:47;9.10;91.40
23497;DHT22;11925;48.122;11.560;2023-12-20T18:31:15;9.10;91.40
23497;DHT22;11925;48.122;11.560;2023-12-20T18:33:44;9.10;91.30
23497;DHT22;11925;48.122;11.560;2023-12-20T18:36:12;9.10;91.30
23497;DHT22;11925;48.122;11.560;2023-12-20T18:38:41;9.10;91.20
23497;DHT22;11925;48.122;11.560;2023-12-20T18:41:11;9.10;91.20
23497;DHT22;11925;48.122;11.560;2023-12-20T18:43:42;9.20;91.20
23497;DHT22;11925;48.122;11.560;2023-12-20T18:46:10;9.20;91.10
23497;DHT22;11925;48.122;11.560;2023-12-20T18:48:39;9.40;91.20
23497;DHT22;11925;48.122;11.560;2023-12-20T18:51:09;9.20;91.40
23497;DHT22;11925;48.122;11.560;2023-12-20T18:53:37;9.20;91.00
23497;DHT22;11925;48.122;11.560;2023-12-20T18:56:06;9.20;91.00
23497;DHT22;11925;48.122;11.560;2023-12-20T18:58:36;9.20;91.00
23497;DHT22;11925;48.122;11.560;2023-12-20T19:01:05;9.20;91.00
23497;DHT22;11925;48.122;11.560;2023-12-20T19:03:34;9.10;90.90
23497;DHT22;11925;48.122;11.560;2023-12-20T19:06:03;9.10;90.90
23497;DHT22;11925;48.122;11.560;2023-12-20T19:08:31;9.10;91.00
23497;DHT22;11925;48.122;11.560;2023-12-20T19:11:00;9.10;90.80
23497;DHT22;11925;48.122;11.560;2023-12-20T19:13:28;9.10;90.80
23497;DHT22;11925;48.122;11.560;2023-12-20T19:16:01;9.00;90.90
23497;DHT22;11925;48.122;11.560;2023-12-20T19:18:29;9.20;90.90
23497;DHT22;11925;48.122;11.560;2023-12-20T19:20:58;9.20;90.90
23497;DHT22;11925;48.122;11.560;2023-12-20T19:23:26;9.20;90.90
23497;DHT22;11925;48.122;11.560;2023-12-20T19:25:56;9.20;90.90
23497;DHT22;11925;48.122;11.560;2023-12-20T19:28:25;9.20;90.90
23497;DHT22;11925;48.122;11.560;2023-12-20T19:30:53;9.20;91.00
23497;DHT22;11925;48.122;11.560;2023-12-20T19:33:24;9.30;90.90
23497;DHT22;11925;48.122;11.560;2023-12-20T19:35:52;9.20;90.80
23497;DHT22;11925;48.122;11.560;2023-12-20T19:38:21;9.20;90.80
23497;DHT22;11925;48.122;11.560;2023-12-20T19:40:50;9.20;90.80
23497;DHT22;11925;48.122;11.560;2023-12-20T19:43:20;9.20;90.80
23497;DHT22;11925;48.122;11.560;2023-12-20T19:45:49;9.20;90.70
23497;DHT22;11925;48.122;11.560;2023-12-20T19:48:17;9.20;90.80
23497;DHT22;11925;48.122;11.560;2023-12-20T19:50:48;9.20;90.70
23497;DHT22;11925;48.122;11.560;2023-12-20T19:53:22;9.20;90.70
23497;DHT22;11925;48.122;11.560;2023-12-20T19:55:52;9.10;90.50
23497;DHT22;11925;48.122;11.560;2023-12-20T19:58:21;9.10;90.60
23497;DHT22;11925;48.122;11.560;2023-12-20T20:00:50;9.20;90.70
23497;DHT22;11925;48.122;11.560;2023-12-20T20:03:22;9.20;90.70
23497;DHT22;11925;48.122;11.560;2023-12-20T20:05:52;9.20;90.50
23497;DHT22;11925;48.122;11.560;2023-12-20T20:08:20;9.20;90.50
23497;DHT22;11925;48.122;11.560;2023-12-20T20:10:52;9.20;90.50
23497;DHT22;11925;48.122;11.560;2023-12-20T20:13:20;9.20;90.50
23497;DHT22;11925;48.122;11.560;2023-12-20T20:15:49;9.20;90.40
23497;DHT22;11925;48.122;11.560;2023-12-20T20:18:18;9.10;90.60
23497;DHT22;11925;48.122;11.560;2023-12-20T20:20:47;9.30;90.90
23497;DHT22;11925;48.122;11.560;2023-12-20T20:23:17;9.60;91.20
23497;DHT22;11925;48.122;11.560;2023-12-20T20:25:45;9.80;91.20
23497;DHT22;11925;48.122;11.560;2023-12-20T20:28:14;10.00;91.00
23497;DHT22;11925;48.122;11.560;2023-12-20T20:30:43;10.20;91.00
23497;DHT22;11925;48.122;11.560;2023-12-20T20:33:12;10.40;90.80
23497;DHT22;11925;48.122;11.560;2023-12-20T20:35:40;10.50;90.80
23497;DHT22;11925;48.122;11.560;2023-12-20T20:38:09;10.60;90.60
23497;DHT22;11925;48.122;11.560;2023-12-20T20:40:39;10.70;90.40
23497;DHT22;11925;48.122;11.560;2023-12-20T20:43:07;10.70;90.30
23497;DHT22;11925;48.122;11.560;2023-12-20T20:45:36;10.90;90.50
23497;DHT22;11925;48.122;11.560;2023-12-20T20:48:05;10.90;90.30
23497;DHT22;11925;48.122;11.560;2023-12-20T20:50:51;11.00;90.00
23497;DHT22;11925;48.122;11.560;2023-12-20T20:53:21;11.00;89.80
23497;DHT22;11925;48.122;11.560;2023-12-20T20:55:52;10.90;89.60
23497;DHT22;11925;48.122;11.560;2023-12-20T20:58:20;11.00;89.60
23497;DHT22;11925;48.122;11.560;2023-12-20T21:00:49;11.00;90.10
23497;DHT22;11925;48.122;11.560;2023-12-20T21:03:18;11.00;88.20
23497;DHT22;11925;48.122;11.560;2023-12-20T21:05:46;11.10;89.90
23497;DHT22;11925;48.122;11.560;2023-12-20T21:08:15;11.20;88.90
23497;DHT22;11925;48.122;11.560;2023-12-20T21:10:44;11.40;88.20
23497;DHT22;11925;48.122;11.560;2023-12-20T21:13:15;11.40;88.40
23497;DHT22;11925;48.122;11.560;2023-12-20T21:15:43;11.30;87.70
23497;DHT22;11925;48.122;11.560;2023-12-20T21:18:12;11.30;88.40
23497;DHT22;11925;48.122;11.560;2023-12-20T21:20:40;11.30;88.70
23497;DHT22;11925;48.122;11.560;2023-12-20T21:23:09;11.30;88.70
23497;DHT22;11925;48.122;11.560;2023-12-20T21:25:39;11.30;88.80
23497;DHT22;11925;48.122;11.560;2023-12-20T21:28:07;11.40;87.20
23497;DHT22;11925;48.122;11.560;2023-12-20T21:30:38;11.40;87.30
23497;DHT22;11925;48.122;11.560;2023-12-20T21:33:06;11.40;87.50
23497;DHT22;11925;48.122;11.560;2023-12-20T21:35:35;11.20;87.20
23497;DHT22;11925;48.122;11.560;2023-12-20T21:38:04;11.10;87.40
23497;DHT22;11925;48.122;11.560;2023-12-20T21:40:32;10.90;87.50
23497;DHT22;11925;48.122;11.560;2023-12-20T21:43:01;10.70;87.90
23497;DHT22;11925;48.122;11.560;2023-12-20T21:45:29;10.60;88.10
23497;DHT22;11925;48.122;11.560;2023-12-20T21:47:59;10.50;88.30
23497;DHT22;11925;48.122;11.560;2023-12-20T21:50:27;10.40;88.00
23497;DHT22;11925;48.122;11.560;2023-12-20T21:52:56;10.30;88.20
23497;DHT22;11925;48.122;11.560;2023-12-20T21:55:25;10.10;87.90
23497;DHT22;11925;48.122;11.560;2023-12-20T21:57:54;10.20;88.20
23497;DHT22;11925;48.122;11.560;2023-12-20T22:00:22;10.20;88.30
23497;DHT22;11925;48.122;11.560;2023-12-20T22:02:51;10.10;88.30
23497;DHT22;11925;48.122;11.560;2023-12-20T22:05:21;9.90;88.10
23497;DHT22;11925;48.122;11.560;2023-12-20T22:07:49;9.90;88.30
23497;DHT22;11925;48.122;11.560;2023-12-20T22:10:18;10.00;88.60
23497;DHT22;11925;48.122;11.560;2023-12-20T22:12:47;10.00;88.70
23497;DHT22;11925;48.122;11.560;2023-12-20T22:15:15;9.80;88.30
23497;DHT22;11925;48.122;11.560;2023-12-20T22:17:44;9.80;88.60
23497;DHT22;11925;48.122;11.560;2023-12-20T22:20:13;9.80;88.70
23497;DHT22;11925;48.122;11.560;2023-12-20T22:22:42;9.70;88.80
23497;DHT22;11925;48.122;11.560;2023-12-20T22:25:12;9.70;88.60
23497;DHT22;11925;48.122;11.560;2023-12-20T22:27:40;9.60;88.70
23497;DHT22;11925;48.122;11.560;2023-12-20T22:30:10;9.70;88.90
23497;DHT22;11925;48.122;11.560;2023-12-20T22:32:38;9.50;88.60
23497;DHT22;11925;48.122;11.560;2023-12-20T22:35:08;9.60;88.80
23497;DHT22;11925;48.122;11.560;2023-12-20T22:37:36;9.50;88.80
23497;DHT22;11925;48.122;11.560;2023-12-20T22:40:08;9.50;88.80
23497;DHT22;11925;48.122;11.560;2023-12-20T22:42:37;9.50;88.80
23497;DHT22;11925;48.122;11.560;2023-12-20T22:45:06;9.50;89.00
23497;DHT22;11925;48.122;11.560;2023-12-20T22:47:35;9.50;89.00
23497;DHT22;11925;48.122;11.560;2023-12-20T22:50:04;9.50;89.30
23497;DHT22;11925;48.122;11.560;2023-12-20T22:52:33;9.50;89.00
23497;DHT22;11925;48.122;11.560;2023-12-20T22:55:02;9.50;89.10
23497;DHT22;11925;48.122;11.560;2023-12-20T22:57:31;9.40;88.90
23497;DHT22;11925;48.122;11.560;2023-12-20T23:00:00;9.40;88.90
23497;DHT22;11925;48.122;11.560;2023-12-20T23:02:29;9.50;89.10
23497;DHT22;11925;48.122;11.560;2023-12-20T23:04:57;9.50;89.10
23497;DHT22;11925;48.122;11.560;2023-12-20T23:07:26;9.40;88.80
23497;DHT22;11925;48.122;11.560;2023-12-20T23:09:54;9.40;88.90
23497;DHT22;11925;48.122;11.560;2023-12-20T23:12:23;9.40;88.90
23497;DHT22;11925;48.122;11.560;2023-12-20T23:14:53;9.50;89.00
23497;DHT22;11925;48.122;11.560;2023-12-20T23:17:21;9.40;88.80
23497;DHT22;11925;48.122;11.560;2023-12-20T23:19:50;9.40;88.80
23497;DHT22;11925;48.122;11.560;2023-12-20T23:22:18;9.50;89.10
23497;DHT22;11925;48.122;11.560;2023-12-20T23:24:47;9.40;88.50